createdAt,value
2019-04-27T00:00:11.953Z,8.23
2019-04-27T00:03:01.880Z,8.03
2019-04-27T00:05:40.556Z,8.58
2019-04-27T00:08:35.618Z,8.45
2019-04-27T00:11:05.043Z,7.92
2019-04-27T00:13:40.735Z,8.30
2019-04-27T00:16:11.362Z,8.68
2019-04-27T00:18:49.739Z,8.28
2019-04-27T00:21:20.182Z,8.95
2019-04-27T00:23:53.149Z,8.60
2019-04-27T00:26:24.314Z,8.58
2019-04-27T00:28:57.097Z,8.85
2019-04-27T00:31:28.545Z,9.48
2019-04-27T00:33:59.690Z,8.57
2019-04-27T00:36:38.514Z,8.95
2019-04-27T00:39:15.294Z,9.05
2019-04-27T00:41:46.538Z,9.23
2019-04-27T00:44:17.884Z,9.38
2019-04-27T00:46:49.129Z,8.28
2019-04-27T00:49:20.581Z,9.60
2019-04-27T00:51:53.628Z,9.03
2019-04-27T00:54:25.838Z,9.38
2019-04-27T00:57:03.203Z,9.48
2019-04-27T00:59:53.029Z,9.63
2019-04-27T01:02:37.987Z,10.90
2019-04-27T01:05:13.931Z,10.78
2019-04-27T01:07:45.280Z,11.00
2019-04-27T01:10:17.144Z,10.75
2019-04-27T01:12:48.388Z,10.38
2019-04-27T01:17:51.021Z,10.43
2019-04-27T01:20:22.637Z,10.80
2019-04-27T01:22:54.191Z,11.22
2019-04-27T01:25:28.926Z,10.08
2019-04-27T01:28:01.910Z,10.13
2019-04-27T01:30:48.926Z,10.40
2019-04-27T01:33:20.269Z,10.68
2019-04-27T01:35:51.924Z,9.78
2019-04-27T01:38:23.272Z,11.38
2019-04-27T01:40:54.723Z,10.63
2019-04-27T01:43:26.173Z,10.43
2019-04-27T01:45:58.696Z,10.72
2019-04-27T01:48:31.224Z,10.63
2019-04-27T01:51:02.779Z,11.00
2019-04-27T01:53:34.330Z,11.35
2019-04-27T01:56:05.996Z,11.65
2019-04-27T01:58:39.270Z,12.45
2019-04-27T02:01:21.689Z,12.58
2019-04-27T02:04:12.392Z,11.45
2019-04-27T02:06:45.683Z,11.53
2019-04-27T02:09:18.851Z,11.08
2019-04-27T02:11:50.326Z,12.07
2019-04-27T02:14:21.776Z,12.03
2019-04-27T02:16:53.328Z,11.20
2019-04-27T02:19:24.794Z,11.38
2019-04-27T02:21:56.433Z,11.43
2019-04-27T02:24:28.828Z,10.48
2019-04-27T02:29:50.543Z,12.18
2019-04-27T02:32:29.481Z,11.63
2019-04-27T02:35:02.679Z,12.25
2019-04-27T02:37:34.126Z,11.93
2019-04-27T02:40:30.459Z,10.72
2019-04-27T02:43:01.287Z,10.10
2019-04-27T02:45:33.557Z,12.00
2019-04-27T02:48:05.010Z,10.50
2019-04-27T02:50:36.456Z,11.43
2019-04-27T02:53:10.834Z,11.08
2019-04-27T02:55:41.818Z,11.68
2019-04-27T02:58:13.472Z,11.70
2019-04-27T03:00:44.822Z,11.20
2019-04-27T03:03:16.178Z,12.03
2019-04-27T03:05:50.207Z,11.95
2019-04-27T03:08:20.911Z,11.05
2019-04-27T03:10:52.262Z,11.40
2019-04-27T03:13:30.402Z,10.45
2019-04-27T03:16:03.148Z,9.45
2019-04-27T03:18:36.240Z,9.73
2019-04-27T03:21:12.711Z,11.03
2019-04-27T03:23:42.109Z,11.22
2019-04-27T03:26:22.467Z,11.63
2019-04-27T03:28:55.247Z,13.25
2019-04-27T03:31:26.597Z,13.13
2019-04-27T03:34:04.317Z,13.15
2019-04-27T03:36:31.969Z,13.30
2019-04-27T03:41:34.140Z,12.30
2019-04-27T03:44:05.692Z,12.58
2019-04-27T03:46:39.504Z,11.18
2019-04-27T03:49:27.339Z,11.95
2019-04-27T03:51:45.687Z,10.85
2019-04-27T03:54:21.656Z,9.98
2019-04-27T03:56:53.089Z,13.05
2019-04-27T03:59:26.276Z,11.57
2019-04-27T04:01:59.053Z,13.00
2019-04-27T04:04:32.782Z,13.75
2019-04-27T04:07:14.551Z,14.23
2019-04-27T04:09:45.811Z,16.00
2019-04-27T04:12:21.962Z,10.75
2019-04-27T04:14:53.309Z,10.50
2019-04-27T04:17:25.987Z,10.10
2019-04-27T04:20:01.206Z,9.35
2019-04-27T04:22:32.377Z,9.28
2019-04-27T04:25:04.240Z,8.10
2019-04-27T04:27:35.379Z,9.15
2019-04-27T04:30:09.962Z,9.40
2019-04-27T04:32:40.116Z,8.55
2019-04-27T04:35:23.875Z,9.07
2019-04-27T04:37:55.313Z,9.25
2019-04-27T04:40:30.645Z,8.30
2019-04-27T04:43:04.459Z,7.92
2019-04-27T04:45:39.332Z,8.43
2019-04-27T04:48:14.830Z,8.03
2019-04-27T04:50:45.975Z,8.73
2019-04-27T04:53:20.640Z,8.20
2019-04-27T04:55:51.126Z,9.68
2019-04-27T04:58:22.371Z,9.48
2019-04-27T05:00:53.822Z,9.45
2019-04-27T05:03:25.168Z,9.08
2019-04-27T05:08:30.327Z,14.30
2019-04-27T05:13:32.203Z,9.75
2019-04-27T05:16:03.516Z,10.68
2019-04-27T05:18:35.315Z,10.05
2019-04-27T05:21:08.785Z,12.58
2019-04-27T05:23:39.849Z,13.93
2019-04-27T05:26:11.401Z,13.72
2019-04-27T05:28:44.287Z,13.68
2019-04-27T05:31:15.734Z,13.15
2019-04-27T05:33:48.871Z,13.32
2019-04-27T05:36:20.279Z,13.40
2019-04-27T05:38:52.953Z,12.20
2019-04-27T05:41:24.508Z,12.63
2019-04-27T05:43:59.176Z,14.18
2019-04-27T05:46:35.684Z,11.30
2019-04-27T05:49:07.752Z,8.73
2019-04-27T05:51:40.524Z,7.97
2019-04-27T05:54:12.412Z,8.85
2019-04-27T05:56:43.963Z,8.18
2019-04-27T05:59:15.313Z,7.05
2019-04-27T06:01:48.993Z,8.33
2019-04-27T06:04:19.658Z,7.70
2019-04-27T06:06:50.943Z,8.17
2019-04-27T06:09:22.444Z,6.62
2019-04-27T06:11:53.791Z,6.20
2019-04-27T06:14:25.041Z,7.42
2019-04-27T06:16:56.413Z,6.08
2019-04-27T06:19:29.090Z,6.58
2019-04-27T06:22:01.426Z,6.87
2019-04-27T06:24:32.798Z,6.85
2019-04-27T06:27:04.236Z,6.78
2019-04-27T06:29:35.689Z,8.20
2019-04-27T06:32:07.037Z,6.08
2019-04-27T06:34:39.089Z,7.30
2019-04-27T06:37:10.448Z,6.60
2019-04-27T06:39:41.799Z,6.90
2019-04-27T06:42:18.554Z,5.47
2019-04-27T06:44:46.030Z,5.90
2019-04-27T06:47:19.104Z,6.17
2019-04-27T06:49:50.472Z,5.87
2019-04-27T06:52:21.914Z,5.75
2019-04-27T06:54:53.472Z,6.17
2019-04-27T06:57:24.817Z,5.33
2019-04-27T06:59:56.165Z,6.22
2019-04-27T07:02:29.077Z,6.10
2019-04-27T07:05:00.403Z,6.53
2019-04-27T07:07:32.878Z,5.83
2019-04-27T07:10:05.593Z,6.33
2019-04-27T07:12:40.889Z,6.58
2019-04-27T07:15:11.528Z,6.97
2019-04-27T07:17:42.982Z,8.25
2019-04-27T07:20:14.123Z,8.68
2019-04-27T07:22:45.583Z,6.97
2019-04-27T07:25:16.714Z,6.05
2019-04-27T07:27:49.350Z,9.25
2019-04-27T07:30:20.539Z,6.50
2019-04-27T07:32:52.093Z,7.30
2019-04-27T07:35:24.493Z,6.17
2019-04-27T07:37:56.016Z,6.60
2019-04-27T07:40:28.893Z,5.90
2019-04-27T07:43:04.244Z,6.67
2019-04-27T07:45:39.431Z,5.75
2019-04-27T07:48:11.137Z,6.20
2019-04-27T07:50:42.587Z,5.87
2019-04-27T07:53:14.042Z,5.47
2019-04-27T07:55:45.698Z,5.58
2019-04-27T07:58:16.839Z,5.92
2019-04-27T08:03:20.558Z,4.95
2019-04-27T08:05:53.134Z,5.53
2019-04-27T08:08:24.587Z,5.45
2019-04-27T08:10:55.845Z,5.10
2019-04-27T08:15:59.011Z,5.45
2019-04-27T08:18:30.289Z,6.00
2019-04-27T08:21:02.866Z,5.97
2019-04-27T08:26:06.481Z,5.65
2019-04-27T08:28:42.333Z,6.50
2019-04-27T08:31:22.184Z,5.90
2019-04-27T08:33:53.532Z,5.47
2019-04-27T08:38:55.511Z,6.55
2019-04-27T08:43:58.705Z,7.17
2019-04-27T08:46:29.864Z,6.28
2019-04-27T08:49:01.313Z,6.15
2019-04-27T08:51:32.765Z,6.05
2019-04-27T08:54:04.111Z,6.40
2019-04-27T08:56:35.266Z,6.40
2019-04-27T08:59:06.403Z,5.67
2019-04-27T09:01:39.743Z,6.08
2019-04-27T09:04:11.320Z,6.28
2019-04-27T09:09:16.509Z,5.92
2019-04-27T09:11:55.532Z,6.45
2019-04-27T09:14:29.432Z,7.15
2019-04-27T09:17:03.048Z,5.47
2019-04-27T09:19:51.084Z,5.92
2019-04-27T09:22:22.429Z,5.45
2019-04-27T09:24:53.789Z,5.45
2019-04-27T09:27:25.230Z,6.28
2019-04-27T09:29:56.473Z,6.00
2019-04-27T09:32:28.953Z,6.15
2019-04-27T09:35:00.198Z,6.75
2019-04-27T09:37:31.648Z,6.37
2019-04-27T09:40:02.811Z,7.05
2019-04-27T09:42:36.230Z,6.22
2019-04-27T09:45:07.439Z,4.92
2019-04-27T09:50:10.229Z,5.70
2019-04-27T09:52:42.091Z,6.42
2019-04-27T09:57:44.014Z,5.65
2019-04-27T10:02:47.091Z,6.12
2019-04-27T10:05:19.549Z,5.40
2019-04-27T10:07:54.076Z,5.72
2019-04-27T10:10:26.770Z,6.25
2019-04-27T10:12:58.141Z,6.42
2019-04-27T10:15:29.554Z,6.08
2019-04-27T10:18:01.010Z,5.55
2019-04-27T10:20:32.452Z,5.65
2019-04-27T10:23:03.907Z,5.60
2019-04-27T10:25:37.538Z,5.67
2019-04-27T10:28:08.754Z,5.85
2019-04-27T10:30:42.455Z,6.78
2019-04-27T10:33:15.988Z,5.97
2019-04-27T10:35:47.404Z,5.65
2019-04-27T10:38:19.713Z,6.03
2019-04-27T10:40:52.035Z,5.58
2019-04-27T10:43:23.498Z,5.97
2019-04-27T10:45:56.521Z,6.30
2019-04-27T10:48:28.079Z,5.83
2019-04-27T10:50:59.422Z,5.47
2019-04-27T10:53:30.834Z,5.72
2019-04-27T10:58:32.820Z,6.67
2019-04-27T11:01:05.810Z,6.78
2019-04-27T11:03:57.337Z,6.03
2019-04-27T11:06:33.910Z,4.72
2019-04-27T11:09:10.372Z,5.37
2019-04-27T11:11:41.718Z,6.90
2019-04-27T11:14:13.060Z,5.42
2019-04-27T11:16:45.971Z,5.85
2019-04-27T11:19:18.231Z,5.35
2019-04-27T11:21:49.390Z,5.37
2019-04-27T11:26:51.645Z,5.20
2019-04-27T11:29:22.788Z,6.70
2019-04-27T11:31:55.627Z,5.83
2019-04-27T11:34:45.920Z,5.60
2019-04-27T11:37:18.644Z,4.00
2019-04-27T11:39:49.686Z,5.30
2019-04-27T11:42:20.931Z,3.17
2019-04-27T11:44:52.178Z,2.90
2019-04-27T11:47:23.429Z,4.08
2019-04-27T11:49:54.769Z,4.15
2019-04-27T11:52:26.736Z,3.95
2019-04-27T11:54:58.082Z,3.80
2019-04-27T11:57:29.430Z,3.15
2019-04-27T12:00:00.782Z,3.50
2019-04-27T12:02:35.694Z,4.12
2019-04-27T12:05:10.133Z,5.03
2019-04-27T12:07:41.479Z,5.17
2019-04-27T12:10:13.135Z,6.45
2019-04-27T12:12:46.203Z,5.90
2019-04-27T12:15:18.889Z,4.55
2019-04-27T12:17:50.063Z,4.33
2019-04-27T12:20:21.288Z,6.25
2019-04-27T12:22:52.742Z,6.15
2019-04-27T12:25:23.885Z,5.87
2019-04-27T12:28:02.710Z,6.55
2019-04-27T12:30:37.053Z,5.72
2019-04-27T12:33:08.278Z,6.50
2019-04-27T12:35:39.730Z,5.10
2019-04-27T12:38:11.073Z,5.87
2019-04-27T12:40:42.525Z,6.97
2019-04-27T12:43:13.870Z,7.28
2019-04-27T12:45:45.977Z,6.35
2019-04-27T12:48:17.081Z,8.33
2019-04-27T12:50:48.427Z,9.85
2019-04-27T12:53:24.590Z,7.47
2019-04-27T12:56:14.063Z,6.70
2019-04-27T12:58:53.603Z,6.17
2019-04-27T13:01:26.706Z,7.92
2019-04-27T13:03:59.723Z,7.87
2019-04-27T13:06:33.382Z,8.70
2019-04-27T13:09:07.175Z,8.33
2019-04-27T13:11:38.331Z,7.60
2019-04-27T13:14:10.089Z,9.23
2019-04-27T13:19:13.198Z,8.20
2019-04-27T13:21:46.797Z,9.38
2019-04-27T13:24:19.068Z,10.08
2019-04-27T13:26:50.550Z,8.00
2019-04-27T13:29:22.073Z,7.35
2019-04-27T13:31:53.519Z,6.37
2019-04-27T13:34:24.766Z,6.37
2019-04-27T13:36:57.033Z,5.47
2019-04-27T13:39:36.996Z,6.03
2019-04-27T13:42:08.547Z,6.62
2019-04-27T13:44:39.792Z,5.37
2019-04-27T13:47:29.525Z,4.50
2019-04-27T13:50:02.446Z,4.80
2019-04-27T13:52:33.905Z,5.53
2019-04-27T13:55:06.194Z,5.57
2019-04-27T14:00:09.785Z,6.80
2019-04-27T14:02:41.030Z,7.83
2019-04-27T14:05:12.794Z,6.55
2019-04-27T14:07:43.934Z,6.60
2019-04-27T14:10:15.690Z,9.53
2019-04-27T14:12:48.772Z,9.33
2019-04-27T14:15:22.586Z,8.65
2019-04-27T14:17:53.937Z,7.87
2019-04-27T14:20:25.194Z,11.63
2019-04-27T14:23:03.279Z,9.93
2019-04-27T14:25:31.561Z,7.62
2019-04-27T14:28:04.654Z,6.22
2019-04-27T14:30:38.107Z,7.58
2019-04-27T14:33:09.296Z,13.90
2019-04-27T14:35:42.484Z,13.68
2019-04-27T14:38:13.834Z,13.88
2019-04-27T14:40:45.387Z,13.85
2019-04-27T14:43:18.962Z,8.83
2019-04-27T14:45:50.435Z,11.50
2019-04-27T14:48:21.692Z,10.70
2019-04-27T14:50:53.244Z,14.05
2019-04-27T14:53:24.788Z,11.93
2019-04-27T14:55:58.589Z,10.88
2019-04-27T14:58:30.145Z,10.93
2019-04-27T15:01:01.394Z,10.30
2019-04-27T15:03:32.851Z,11.63
2019-04-27T15:06:07.061Z,13.72
2019-04-27T15:08:42.653Z,12.93
2019-04-27T15:11:17.347Z,12.47
2019-04-27T15:13:48.038Z,12.28
2019-04-27T15:16:18.813Z,10.45
2019-04-27T15:19:00.015Z,12.78
2019-04-27T15:21:40.407Z,15.60
2019-04-27T15:24:13.629Z,15.80
2019-04-27T15:26:44.982Z,11.55
2019-04-27T15:29:25.048Z,11.35
2019-04-27T15:32:02.666Z,13.72
2019-04-27T15:34:35.745Z,15.50
2019-04-27T15:37:08.804Z,13.78
2019-04-27T15:39:42.000Z,11.15
2019-04-27T15:42:15.088Z,10.72
2019-04-27T15:44:50.217Z,8.98
2019-04-27T15:47:20.659Z,11.25
2019-04-27T15:49:54.571Z,10.13
2019-04-27T15:52:29.558Z,8.83
2019-04-27T15:55:02.727Z,10.90
2019-04-27T15:57:38.180Z,11.22
2019-04-27T16:00:17.244Z,13.30
2019-04-27T16:02:49.336Z,12.50
2019-04-27T16:05:19.140Z,14.45
2019-04-27T16:07:50.585Z,14.50
2019-04-27T16:10:21.835Z,12.37
2019-04-27T16:13:05.941Z,14.73
2019-04-27T16:15:27.915Z,14.30
2019-04-27T16:18:01.406Z,15.15
2019-04-27T16:20:34.045Z,16.97
2019-04-27T16:23:06.558Z,18.00
2019-04-27T16:25:48.598Z,18.07
2019-04-27T16:28:13.583Z,19.65
2019-04-27T16:30:50.625Z,19.20
2019-04-27T16:33:23.517Z,21.17
2019-04-27T16:36:00.291Z,22.07
2019-04-27T16:38:34.593Z,23.80
2019-04-27T16:41:05.965Z,25.27
2019-04-27T16:43:45.638Z,22.67
2019-04-27T16:46:21.372Z,19.30
2019-04-27T16:48:53.733Z,16.23
2019-04-27T16:51:25.389Z,20.08
2019-04-27T16:53:58.413Z,17.50
2019-04-27T16:56:31.363Z,18.27
2019-04-27T16:59:25.798Z,19.30
2019-04-27T17:01:41.748Z,16.57
2019-04-27T17:04:11.383Z,14.03
2019-04-27T17:06:46.104Z,12.30
2019-04-27T17:09:18.939Z,16.10
2019-04-27T17:11:52.861Z,20.57
2019-04-27T17:14:28.998Z,25.85
2019-04-27T17:17:10.474Z,30.62
2019-04-27T17:19:43.740Z,15.70
2019-04-27T17:22:14.770Z,23.65
2019-04-27T17:24:49.383Z,23.75
2019-04-27T17:27:28.906Z,25.40
2019-04-27T17:29:59.479Z,22.05
2019-04-27T17:32:33.719Z,26.40
2019-04-27T17:35:12.933Z,21.75
2019-04-27T17:37:40.551Z,25.55
2019-04-27T17:40:15.525Z,20.25
2019-04-27T17:42:48.773Z,29.20
2019-04-27T17:45:21.707Z,30.08
2019-04-27T17:47:53.209Z,23.87
2019-04-27T17:50:25.252Z,22.60
2019-04-27T17:52:59.074Z,20.57
2019-04-27T17:55:31.659Z,19.23
2019-04-27T17:58:05.226Z,22.05
2019-04-27T18:00:41.671Z,24.65
2019-04-27T18:03:17.600Z,32.42
2019-04-27T18:05:51.935Z,28.62
2019-04-27T18:08:25.266Z,31.73
2019-04-27T18:11:03.084Z,29.07
2019-04-27T18:13:32.499Z,27.58
2019-04-27T18:16:03.954Z,29.43
2019-04-27T18:18:53.013Z,30.75
2019-04-27T18:21:28.282Z,30.02
2019-04-27T18:24:04.527Z,31.95
2019-04-27T18:26:48.784Z,30.90
2019-04-27T18:29:13.563Z,29.55
2019-04-27T18:31:46.412Z,29.20
2019-04-27T18:34:21.684Z,31.93
2019-04-27T18:36:53.234Z,34.43
2019-04-27T18:39:28.679Z,33.20
2019-04-27T18:42:01.460Z,28.92
2019-04-27T18:44:36.089Z,27.07
2019-04-27T18:47:08.410Z,35.63
2019-04-27T18:49:55.276Z,36.55
2019-04-27T18:52:42.397Z,28.90
2019-04-27T18:55:16.718Z,31.68
2019-04-27T18:57:51.144Z,35.33
2019-04-27T19:00:21.347Z,32.20
2019-04-27T19:02:53.725Z,37.45
2019-04-27T19:05:37.237Z,38.48
2019-04-27T19:07:58.161Z,53.13
2019-04-27T19:10:32.274Z,51.65
2019-04-27T19:13:06.077Z,43.33
2019-04-27T19:15:40.306Z,36.45
2019-04-27T19:18:11.643Z,35.55
2019-04-27T19:20:44.423Z,37.40
2019-04-27T19:23:16.388Z,41.98
2019-04-27T19:25:55.412Z,47.10
2019-04-27T19:28:31.572Z,42.67
2019-04-27T19:31:19.617Z,45.48
2019-04-27T19:33:54.337Z,40.70
2019-04-27T19:36:27.930Z,31.62
2019-04-27T19:39:00.109Z,28.77
2019-04-27T19:41:33.670Z,30.10
2019-04-27T19:44:06.386Z,28.50
2019-04-27T19:46:39.888Z,26.35
2019-04-27T19:49:11.545Z,29.00
2019-04-27T19:51:43.649Z,25.88
2019-04-27T19:54:15.267Z,24.95
2019-04-27T19:56:46.716Z,25.90
2019-04-27T19:59:19.909Z,23.50
2019-04-27T20:01:53.198Z,24.02
2019-04-27T20:04:30.885Z,20.88
2019-04-27T20:07:02.656Z,20.80
2019-04-27T20:09:35.640Z,16.05
2019-04-27T20:12:08.173Z,16.90
2019-04-27T20:14:58.201Z,6.67
2019-04-27T20:17:31.192Z,7.45
2019-04-27T20:20:02.641Z,15.63
2019-04-27T20:22:35.732Z,16.67
2019-04-27T20:25:07.285Z,17.77
2019-04-27T20:27:48.357Z,17.57
2019-04-27T20:30:13.667Z,18.92
2019-04-27T20:32:47.730Z,17.75
2019-04-27T20:37:51.689Z,15.53
2019-04-27T20:40:23.167Z,16.70
2019-04-27T20:42:54.809Z,18.75
2019-04-27T20:45:26.570Z,19.12
2019-04-27T20:47:58.216Z,18.80
2019-04-27T20:50:30.850Z,19.32
2019-04-27T20:53:04.807Z,18.57
2019-04-27T20:55:36.256Z,19.07
2019-04-27T20:58:07.706Z,21.45
2019-04-27T21:00:41.852Z,29.07
2019-04-27T21:03:14.706Z,23.52
2019-04-27T21:05:47.999Z,22.20
2019-04-27T21:08:21.194Z,20.48
2019-04-27T21:10:52.644Z,17.00
2019-04-27T21:13:24.093Z,18.30
2019-04-27T21:15:55.745Z,20.23
2019-04-27T21:18:27.821Z,17.67
2019-04-27T21:20:59.158Z,15.43
2019-04-27T21:23:31.320Z,22.95
2019-04-27T21:26:02.886Z,20.43
2019-04-27T21:28:34.440Z,18.07
2019-04-27T21:31:05.983Z,18.95
2019-04-27T21:33:37.440Z,21.07
2019-04-27T21:36:09.198Z,20.37
2019-04-27T21:38:42.682Z,20.45
2019-04-27T21:41:14.148Z,20.45
2019-04-27T21:43:45.494Z,20.87
2019-04-27T21:46:16.839Z,20.35
2019-04-27T21:48:48.495Z,18.27
2019-04-27T21:51:21.690Z,18.07
2019-04-27T21:54:11.939Z,19.12
2019-04-27T21:56:43.533Z,20.85
2019-04-27T21:59:15.189Z,16.50
2019-04-27T22:01:47.154Z,15.53
2019-04-27T22:04:18.496Z,16.60
2019-04-27T22:06:51.258Z,17.98
2019-04-27T22:09:23.246Z,17.73
2019-04-27T22:11:54.898Z,15.13
2019-04-27T22:14:26.657Z,17.62
2019-04-27T22:16:57.897Z,23.05
2019-04-27T22:19:31.115Z,25.37
2019-04-27T22:22:04.080Z,25.00
2019-04-27T22:24:37.067Z,23.18
2019-04-27T22:27:08.717Z,25.25
2019-04-27T22:29:40.274Z,24.72
2019-04-27T22:32:11.823Z,28.23
2019-04-27T22:34:43.072Z,27.60
2019-04-27T22:37:14.621Z,27.50
2019-04-27T22:40:01.041Z,24.10
2019-04-27T22:42:51.586Z,26.48
2019-04-27T22:45:24.817Z,29.55
2019-04-27T22:47:56.367Z,29.77
2019-04-27T22:50:27.823Z,28.38
2019-04-27T22:52:59.372Z,25.97
2019-04-27T22:55:31.119Z,24.70
2019-04-27T22:58:11.721Z,25.23
2019-04-27T23:00:51.266Z,23.87
2019-04-27T23:03:24.419Z,21.20
2019-04-27T23:05:55.975Z,24.18
2019-04-27T23:08:27.531Z,20.48
2019-04-27T23:11:00.569Z,19.52
2019-04-27T23:13:32.070Z,20.68
2019-04-27T23:45:45.599Z,25.60
2019-04-27T23:49:34.774Z,29.65
